LOG916M EGPD-EGPH
Flight info
| Callsign | LOG916M |
|---|---|
| Flight time | 0h 41m |
| Altitude | 12000 |
| Route | GLESK P600 PTH |
| Aircraft | AT76/M-SDFGIRY/S |
Departure
| Time | 2026-05-05 20:29 |
|---|---|
| Airport | Aberdeen International Airport (EGPD) |
Arrival
| Time | 2026-05-05 21:10 |
|---|---|
| Airport | Edinburgh Airport (EGPH) |
| Time | Latitude | Longitude | Altitude | Speed | Heading |
|---|---|---|---|---|---|
| 2026-05-05 20:17 | 57.20225 | -2.20433 | 209 ft | 0 kts | 137° |
| 2026-05-05 20:23 | 57.20228 | -2.20439 | 215 ft | 2 kts | 135° |
| 2026-05-05 20:23 | 57.20241 | -2.20465 | 219 ft | 3 kts | 118° |
| 2026-05-05 20:23 | 57.20247 | -2.20497 | 213 ft | 3 kts | 83° |
| 2026-05-05 20:24 | 57.20243 | -2.20523 | 212 ft | 1 kts | 46° |
| 2026-05-05 20:24 | 57.20239 | -2.20530 | 217 ft | 0 kts | 46° |
| 2026-05-05 20:26 | 57.20250 | -2.20508 | 211 ft | 2 kts | 46° |
| 2026-05-05 20:26 | 57.20273 | -2.20465 | 209 ft | 7 kts | 46° |
| 2026-05-05 20:26 | 57.20314 | -2.20377 | 209 ft | 12 kts | 57° |
| 2026-05-05 20:26 | 57.20362 | -2.20254 | 214 ft | 11 kts | 46° |
| 2026-05-05 20:27 | 57.20378 | -2.20209 | 209 ft | 5 kts | 103° |
| 2026-05-05 20:27 | 57.20304 | -2.20070 | 214 ft | 17 kts | 137° |
| 2026-05-05 20:27 | 57.20187 | -2.19886 | 209 ft | 29 kts | 140° |
| 2026-05-05 20:27 | 57.20118 | -2.19759 | 209 ft | 7 kts | 96° |
| 2026-05-05 20:28 | 57.20167 | -2.19758 | 212 ft | 22 kts | 337° |
| 2026-05-05 20:28 | 57.20527 | -2.20026 | 217 ft | 87 kts | 338° |
| 2026-05-05 20:28 | 57.21235 | -2.20547 | 302 ft | 122 kts | 339° |
| 2026-05-05 20:28 | 57.22051 | -2.21140 | 694 ft | 133 kts | 339° |
| 2026-05-05 20:29 | 57.22966 | -2.21807 | 953 ft | 152 kts | 340° |
| 2026-05-05 20:29 | 57.23876 | -2.22700 | 1419 ft | 150 kts | 317° |
| 2026-05-05 20:29 | 57.24357 | -2.24532 | 1597 ft | 172 kts | 278° |
| 2026-05-05 20:29 | 57.24047 | -2.26631 | 2088 ft | 171 kts | 234° |
| 2026-05-05 20:30 | 57.23146 | -2.27970 | 2564 ft | 170 kts | 214° |
| 2026-05-05 20:30 | 57.22016 | -2.28950 | 2800 ft | 184 kts | 195° |
| 2026-05-05 20:30 | 57.20756 | -2.29343 | 3186 ft | 183 kts | 191° |
| 2026-05-05 20:30 | 57.19653 | -2.30483 | 3546 ft | 184 kts | 224° |
| 2026-05-05 20:31 | 57.18776 | -2.32184 | 3988 ft | 183 kts | 231° |
| 2026-05-05 20:31 | 57.17934 | -2.33962 | 4407 ft | 184 kts | 232° |
| 2026-05-05 20:31 | 57.16916 | -2.35298 | 4796 ft | 188 kts | 193° |
| 2026-05-05 20:31 | 57.15651 | -2.34933 | 5165 ft | 189 kts | 146° |
| 2026-05-05 20:32 | 57.14868 | -2.33081 | 5506 ft | 184 kts | 109° |
| 2026-05-05 20:32 | 57.14094 | -2.31218 | 5754 ft | 192 kts | 150° |
| 2026-05-05 20:32 | 57.12794 | -2.30900 | 6118 ft | 193 kts | 198° |
| 2026-05-05 20:32 | 57.11691 | -2.32184 | 6494 ft | 188 kts | 223° |
| 2026-05-05 20:33 | 57.10470 | -2.33053 | 6799 ft | 193 kts | 188° |
| 2026-05-05 20:33 | 57.09223 | -2.33827 | 7048 ft | 190 kts | 226° |
| 2026-05-05 20:33 | 57.08469 | -2.35752 | 7397 ft | 186 kts | 241° |
| 2026-05-05 20:33 | 57.07713 | -2.37685 | 7766 ft | 187 kts | 237° |
| 2026-05-05 20:34 | 57.06920 | -2.39593 | 8149 ft | 188 kts | 237° |
| 2026-05-05 20:34 | 57.06124 | -2.41494 | 8535 ft | 188 kts | 237° |
| 2026-05-05 20:34 | 57.05326 | -2.43400 | 8912 ft | 188 kts | 238° |
| 2026-05-05 20:34 | 57.04524 | -2.45309 | 9287 ft | 189 kts | 238° |
| 2026-05-05 20:35 | 57.03708 | -2.47207 | 9665 ft | 190 kts | 234° |
| 2026-05-05 20:35 | 57.02537 | -2.48406 | 9999 ft | 205 kts | 191° |
| 2026-05-05 20:35 | 57.01139 | -2.47834 | 10290 ft | 215 kts | 148° |
| 2026-05-05 20:35 | 57.00201 | -2.45745 | 10569 ft | 215 kts | 107° |
| 2026-05-05 20:36 | 57.00146 | -2.43089 | 10842 ft | 208 kts | 66° |
| 2026-05-05 20:36 | 57.00967 | -2.41070 | 11128 ft | 195 kts | 25° |
| 2026-05-05 20:36 | 57.02228 | -2.40636 | 11408 ft | 183 kts | 342° |
| 2026-05-05 20:36 | 57.03210 | -2.41960 | 11685 ft | 180 kts | 298° |
| 2026-05-05 20:37 | 57.03339 | -2.44213 | 11937 ft | 185 kts | 262° |
| 2026-05-05 20:37 | 57.03124 | -2.45757 | 12020 ft | 192 kts | 258° |
| 2026-05-05 20:37 | 57.02523 | -2.49000 | 12088 ft | 210 kts | 251° |
| 2026-05-05 20:37 | 57.01849 | -2.51475 | 12111 ft | 223 kts | 244° |
| 2026-05-05 20:38 | 57.00977 | -2.53918 | 12121 ft | 234 kts | 238° |
| 2026-05-05 20:38 | 56.99966 | -2.56331 | 12122 ft | 242 kts | 236° |
| 2026-05-05 20:38 | 56.98894 | -2.58762 | 12124 ft | 248 kts | 235° |
| 2026-05-05 20:38 | 56.97686 | -2.61003 | 12119 ft | 257 kts | 216° |
| 2026-05-05 20:39 | 56.95939 | -2.61897 | 12115 ft | 271 kts | 183° |
| 2026-05-05 20:39 | 56.94096 | -2.60981 | 12118 ft | 281 kts | 152° |
| 2026-05-05 20:39 | 56.92697 | -2.58485 | 12121 ft | 285 kts | 121° |
| 2026-05-05 20:39 | 56.91719 | -2.55388 | 12120 ft | 280 kts | 130° |
| 2026-05-05 20:40 | 56.90149 | -2.53363 | 12116 ft | 278 kts | 163° |
| 2026-05-05 20:40 | 56.88270 | -2.53060 | 12128 ft | 270 kts | 194° |
| 2026-05-05 20:40 | 56.86617 | -2.54485 | 12123 ft | 261 kts | 226° |
| 2026-05-05 20:40 | 56.85636 | -2.57162 | 12123 ft | 253 kts | 252° |
| 2026-05-05 20:41 | 56.85038 | -2.60183 | 12120 ft | 254 kts | 254° |
| 2026-05-05 20:41 | 56.84441 | -2.63230 | 12120 ft | 255 kts | 253° |
| 2026-05-05 20:41 | 56.83795 | -2.66260 | 12122 ft | 257 kts | 251° |
| 2026-05-05 20:41 | 56.83084 | -2.69255 | 12116 ft | 257 kts | 250° |
| 2026-05-05 20:42 | 56.82354 | -2.72240 | 12119 ft | 258 kts | 250° |
| 2026-05-05 20:42 | 56.81614 | -2.75219 | 12116 ft | 258 kts | 249° |
| 2026-05-05 20:42 | 56.80866 | -2.78190 | 12118 ft | 257 kts | 249° |
| 2026-05-05 20:42 | 56.80132 | -2.81172 | 12122 ft | 258 kts | 250° |
| 2026-05-05 20:43 | 56.79403 | -2.84165 | 12121 ft | 259 kts | 250° |
| 2026-05-05 20:43 | 56.78673 | -2.87166 | 12122 ft | 259 kts | 250° |
| 2026-05-05 20:43 | 56.77940 | -2.90167 | 12118 ft | 259 kts | 250° |
| 2026-05-05 20:43 | 56.77206 | -2.93174 | 12119 ft | 259 kts | 250° |
| 2026-05-05 20:44 | 56.76456 | -2.96163 | 12122 ft | 259 kts | 245° |
| 2026-05-05 20:44 | 56.75231 | -2.98595 | 12122 ft | 265 kts | 221° |
| 2026-05-05 20:44 | 56.73697 | -3.00485 | 12123 ft | 267 kts | 217° |
| 2026-05-05 20:44 | 56.72122 | -3.02290 | 12114 ft | 268 kts | 217° |
| 2026-05-05 20:45 | 56.69004 | -3.06008 | 12119 ft | 268 kts | 219° |
| 2026-05-05 20:45 | 56.67989 | -3.07288 | 12116 ft | 268 kts | 219° |
| 2026-05-05 20:45 | 56.66456 | -3.09219 | 12123 ft | 268 kts | 219° |
| 2026-05-05 20:46 | 56.64917 | -3.11143 | 12125 ft | 268 kts | 219° |
| 2026-05-05 20:46 | 56.63377 | -3.13064 | 12122 ft | 269 kts | 219° |
| 2026-05-05 20:46 | 56.61840 | -3.14983 | 12122 ft | 269 kts | 219° |
| 2026-05-05 20:46 | 56.59797 | -3.17529 | 12122 ft | 269 kts | 219° |
| 2026-05-05 20:47 | 56.58258 | -3.19443 | 12127 ft | 269 kts | 218° |
| 2026-05-05 20:47 | 56.57213 | -3.20740 | 12124 ft | 269 kts | 218° |
| 2026-05-05 20:47 | 56.55672 | -3.22658 | 12126 ft | 269 kts | 219° |
| 2026-05-05 20:47 | 56.54134 | -3.24567 | 12126 ft | 269 kts | 218° |
| 2026-05-05 20:48 | 56.52593 | -3.26478 | 12125 ft | 269 kts | 219° |
| 2026-05-05 20:48 | 56.51049 | -3.28393 | 12127 ft | 269 kts | 218° |
| 2026-05-05 20:48 | 56.49504 | -3.30301 | 12123 ft | 269 kts | 218° |
| 2026-05-05 20:48 | 56.47962 | -3.32212 | 12125 ft | 269 kts | 218° |
| 2026-05-05 20:49 | 56.46418 | -3.34117 | 12123 ft | 269 kts | 218° |
| 2026-05-05 20:49 | 56.44895 | -3.35993 | 12126 ft | 269 kts | 218° |
| 2026-05-05 20:49 | 56.43364 | -3.37928 | 12122 ft | 268 kts | 220° |
| 2026-05-05 20:49 | 56.41834 | -3.39927 | 12123 ft | 268 kts | 220° |
| 2026-05-05 20:50 | 56.40319 | -3.41896 | 12123 ft | 268 kts | 220° |
| 2026-05-05 20:50 | 56.38800 | -3.43860 | 12121 ft | 269 kts | 220° |
| 2026-05-05 20:50 | 56.37282 | -3.45826 | 12123 ft | 269 kts | 220° |
| 2026-05-05 20:50 | 56.35785 | -3.47766 | 12118 ft | 269 kts | 220° |
| 2026-05-05 20:51 | 56.34266 | -3.49729 | 12120 ft | 269 kts | 220° |
| 2026-05-05 20:51 | 56.32744 | -3.51690 | 12120 ft | 269 kts | 220° |
| 2026-05-05 20:51 | 56.31223 | -3.53655 | 12119 ft | 269 kts | 220° |
| 2026-05-05 20:51 | 56.29702 | -3.55616 | 12119 ft | 270 kts | 220° |
| 2026-05-05 20:52 | 56.28171 | -3.57583 | 12116 ft | 270 kts | 220° |
| 2026-05-05 20:52 | 56.26647 | -3.59545 | 12109 ft | 270 kts | 219° |
| 2026-05-05 20:52 | 56.25120 | -3.61505 | 12110 ft | 270 kts | 220° |
| 2026-05-05 20:52 | 56.23596 | -3.63462 | 12114 ft | 269 kts | 220° |
| 2026-05-05 20:53 | 56.22070 | -3.65429 | 11847 ft | 270 kts | 220° |
| 2026-05-05 20:53 | 56.20547 | -3.67413 | 11486 ft | 271 kts | 220° |
| 2026-05-05 20:53 | 56.19012 | -3.69396 | 11123 ft | 271 kts | 218° |
| 2026-05-05 20:53 | 56.17240 | -3.70586 | 10753 ft | 281 kts | 188° |
| 2026-05-05 20:54 | 56.15301 | -3.70016 | 10410 ft | 289 kts | 158° |
| 2026-05-05 20:54 | 56.13716 | -3.67830 | 10079 ft | 292 kts | 128° |
| 2026-05-05 20:54 | 56.12879 | -3.64599 | 9709 ft | 284 kts | 98° |
| 2026-05-05 20:54 | 56.12993 | -3.61174 | 9327 ft | 272 kts | 68° |
| 2026-05-05 20:55 | 56.13948 | -3.58382 | 8953 ft | 258 kts | 46° |
| 2026-05-05 20:55 | 56.15164 | -3.56058 | 8581 ft | 253 kts | 41° |
| 2026-05-05 20:55 | 56.16466 | -3.53964 | 8208 ft | 252 kts | 36° |
| 2026-05-05 20:55 | 56.17882 | -3.52193 | 7838 ft | 249 kts | 23° |
| 2026-05-05 20:56 | 56.19550 | -3.51729 | 7488 ft | 243 kts | 351° |
| 2026-05-05 20:56 | 56.21185 | -3.52396 | 7208 ft | 240 kts | 343° |
| 2026-05-05 20:56 | 56.22751 | -3.53347 | 6998 ft | 234 kts | 337° |
| 2026-05-05 20:56 | 56.23981 | -3.55159 | 6789 ft | 233 kts | 303° |
| 2026-05-05 20:57 | 56.24326 | -3.57935 | 6767 ft | 231 kts | 266° |
| 2026-05-05 20:57 | 56.23671 | -3.60562 | 6687 ft | 238 kts | 230° |
| 2026-05-05 20:57 | 56.22243 | -3.62085 | 6591 ft | 245 kts | 195° |
| 2026-05-05 20:57 | 56.20564 | -3.62546 | 6499 ft | 246 kts | 191° |
| 2026-05-05 20:58 | 56.18847 | -3.63167 | 6404 ft | 258 kts | 193° |
| 2026-05-05 20:58 | 56.17062 | -3.63868 | 6292 ft | 267 kts | 193° |
| 2026-05-05 20:58 | 56.15227 | -3.64592 | 6196 ft | 273 kts | 193° |
| 2026-05-05 20:58 | 56.13355 | -3.65280 | 6104 ft | 276 kts | 192° |
| 2026-05-05 20:59 | 56.11472 | -3.65963 | 6044 ft | 277 kts | 192° |
| 2026-05-05 20:59 | 56.09626 | -3.66633 | 5966 ft | 265 kts | 192° |
| 2026-05-05 20:59 | 56.07840 | -3.67274 | 5877 ft | 258 kts | 192° |
| 2026-05-05 20:59 | 56.06099 | -3.67902 | 5758 ft | 253 kts | 192° |
| 2026-05-05 21:00 | 56.04379 | -3.68518 | 5620 ft | 253 kts | 191° |
| 2026-05-05 21:00 | 56.02652 | -3.69139 | 5500 ft | 253 kts | 191° |
| 2026-05-05 21:00 | 56.00936 | -3.69795 | 5362 ft | 251 kts | 195° |
| 2026-05-05 21:00 | 55.99293 | -3.70889 | 5234 ft | 253 kts | 202° |
| 2026-05-05 21:01 | 55.97670 | -3.72133 | 5124 ft | 254 kts | 203° |
| 2026-05-05 21:01 | 55.96057 | -3.73396 | 5017 ft | 254 kts | 203° |
| 2026-05-05 21:01 | 55.94411 | -3.74523 | 4908 ft | 253 kts | 198° |
| 2026-05-05 21:01 | 55.92735 | -3.75422 | 4813 ft | 249 kts | 186° |
| 2026-05-05 21:02 | 55.91041 | -3.75424 | 4727 ft | 240 kts | 180° |
| 2026-05-05 21:02 | 55.89437 | -3.76239 | 4650 ft | 242 kts | 201° |
| 2026-05-05 21:02 | 55.87878 | -3.77409 | 4567 ft | 244 kts | 202° |
| 2026-05-05 21:02 | 55.86317 | -3.78620 | 4481 ft | 245 kts | 202° |
| 2026-05-05 21:03 | 55.84744 | -3.79736 | 4396 ft | 242 kts | 190° |
| 2026-05-05 21:03 | 55.83112 | -3.79467 | 4310 ft | 237 kts | 153° |
| 2026-05-05 21:03 | 55.81917 | -3.77624 | 4244 ft | 230 kts | 118° |
| 2026-05-05 21:03 | 55.81569 | -3.74934 | 4174 ft | 224 kts | 83° |
| 2026-05-05 21:04 | 55.82146 | -3.72493 | 4145 ft | 208 kts | 56° |
| 2026-05-05 21:04 | 55.82955 | -3.70425 | 4126 ft | 200 kts | 54° |
| 2026-05-05 21:04 | 55.83873 | -3.68641 | 4122 ft | 191 kts | 43° |
| 2026-05-05 21:04 | 55.84857 | -3.67110 | 3947 ft | 188 kts | 47° |
| 2026-05-05 21:05 | 55.85527 | -3.65155 | 3688 ft | 186 kts | 63° |
| 2026-05-05 21:05 | 55.86145 | -3.63219 | 3428 ft | 174 kts | 58° |
| 2026-05-05 21:05 | 55.86784 | -3.61455 | 3192 ft | 171 kts | 59° |
| 2026-05-05 21:05 | 55.87408 | -3.59595 | 2948 ft | 179 kts | 60° |
| 2026-05-05 21:06 | 55.88039 | -3.57711 | 2702 ft | 171 kts | 60° |
| 2026-05-05 21:06 | 55.88631 | -3.55987 | 2482 ft | 156 kts | 60° |
| 2026-05-05 21:06 | 55.89176 | -3.54397 | 2269 ft | 148 kts | 61° |
| 2026-05-05 21:06 | 55.89707 | -3.52827 | 2059 ft | 148 kts | 61° |
| 2026-05-05 21:07 | 55.90228 | -3.51290 | 1857 ft | 141 kts | 61° |
| 2026-05-05 21:07 | 55.90722 | -3.49830 | 1664 ft | 133 kts | 61° |
| 2026-05-05 21:07 | 55.91179 | -3.48491 | 1492 ft | 119 kts | 61° |
| 2026-05-05 21:07 | 55.91594 | -3.47305 | 1325 ft | 107 kts | 60° |
| 2026-05-05 21:08 | 55.91999 | -3.46186 | 1141 ft | 109 kts | 62° |
| 2026-05-05 21:08 | 55.92356 | -3.45014 | 994 ft | 105 kts | 64° |
| 2026-05-05 21:08 | 55.92738 | -3.43916 | 913 ft | 106 kts | 61° |
| 2026-05-05 21:08 | 55.93121 | -3.42765 | 749 ft | 108 kts | 62° |
| 2026-05-05 21:09 | 55.93515 | -3.41647 | 623 ft | 103 kts | 62° |
| 2026-05-05 21:09 | 55.93882 | -3.40554 | 393 ft | 106 kts | 62° |
| 2026-05-05 21:09 | 55.94261 | -3.39456 | 245 ft | 103 kts | 63° |
| 2026-05-05 21:09 | 55.94627 | -3.38366 | 121 ft | 100 kts | 62° |
| 2026-05-05 21:10 | 55.94940 | -3.37418 | 103 ft | 75 kts | 61° |
| 2026-05-05 21:10 | 55.95169 | -3.36748 | 105 ft | 48 kts | 60° |
| 2026-05-05 21:10 | 55.95252 | -3.36504 | 103 ft | 14 kts | 60° |
| 2026-05-05 21:10 | 55.95227 | -3.36390 | 103 ft | 12 kts | 147° |
| 2026-05-05 21:11 | 55.95171 | -3.36329 | 103 ft | 7 kts | 149° |
| 2026-05-05 21:11 | 55.95168 | -3.36326 | 104 ft | 0 kts | 149° |
| 2026-05-05 21:11 | 55.95165 | -3.36322 | 103 ft | 7 kts | 149° |
| 2026-05-05 21:11 | 55.95136 | -3.36229 | 103 ft | 11 kts | 109° |
| 2026-05-05 21:12 | 55.95116 | -3.36119 | 104 ft | 8 kts | 108° |
| 2026-05-05 21:12 | 55.95102 | -3.36043 | 104 ft | 8 kts | 109° |
| 2026-05-05 21:12 | 55.95070 | -3.35917 | 104 ft | 12 kts | 116° |
| 2026-05-05 21:12 | 55.95034 | -3.35843 | 104 ft | 7 kts | 157° |
| 2026-05-05 21:13 | 55.94959 | -3.35868 | 104 ft | 9 kts | 174° |
| 2026-05-05 21:13 | 55.94924 | -3.35825 | 103 ft | 2 kts | 130° |
| 2026-05-05 21:13 | 55.94886 | -3.35839 | 104 ft | 10 kts | 205° |
| 2026-05-05 21:13 | 55.94853 | -3.35870 | 104 ft | 3 kts | 208° |
| 2026-05-05 21:14 | 55.94848 | -3.35875 | 104 ft | 0 kts | 207° |